Time;durP1;ratioP1;P1;durP2;ratioP2;P2;SDS_P1;SDS_P2;PMS_P1;PMS_P2;Temp;Humidity;BMP_temperature;BMP_pressure;BME280_temperature;BME280_humidity;BME280_pressure;Samples;Min_cycle;Max_cycle;Signal;HPM_P1;HPM_P2
2021/09/07 00:00:46;;;;;;;1.52;1.02;;;;;;;20.86;35.17;102807.22;1701784;83;21596;-49
2021/09/07 00:03:13;;;;;;;1.47;1.10;;;;;;;20.86;35.24;102808.98;1694545;83;21037;-49
2021/09/07 00:05:41;;;;;;;1.42;1.00;;;;;;;20.86;35.25;102811.64;1692522;83;21497;-50
2021/09/07 00:08:08;;;;;;;2.98;1.80;;;;;;;20.87;35.45;102808.97;1705858;83;21061;-49
2021/09/07 00:10:35;;;;;;;2.00;1.60;;;;;;;20.85;35.44;102810.80;1705063;83;21069;-46
2021/09/07 00:13:03;;;;;;;2.20;1.40;;;;;;;20.86;35.50;102807.22;1705997;83;21605;-49
2021/09/07 00:15:32;;;;;;;1.40;1.02;;;;;;;20.85;35.73;102806.83;1699461;83;21517;-49
2021/09/07 00:17:59;;;;;;;1.82;1.17;;;;;;;20.83;35.90;102807.33;1709238;83;21454;-52
2021/09/07 00:20:26;;;;;;;1.52;1.15;;;;;;;20.82;35.89;102806.91;1720211;83;21037;-47
2021/09/07 00:22:53;;;;;;;1.00;0.95;;;;;;;20.82;35.79;102808.23;1708074;83;21010;-49
2021/09/07 00:25:20;;;;;;;1.60;1.25;;;;;;;20.81;35.73;102808.29;1703753;83;21068;-49
2021/09/07 00:27:47;;;;;;;1.20;1.10;;;;;;;20.80;35.53;102812.70;1704297;83;21061;-50
2021/09/07 00:30:14;;;;;;;1.85;1.30;;;;;;;20.78;35.52;102809.25;1703505;83;21045;-47
2021/09/07 00:32:42;;;;;;;1.10;0.90;;;;;;;20.77;35.54;102804.85;1699850;83;21057;-47
2021/09/07 00:35:11;;;;;;;1.42;1.22;;;;;;;20.77;35.42;102805.33;1705459;83;21513;-50
2021/09/07 00:37:40;;;;;;;2.05;1.45;;;;;;;20.79;35.24;102804.34;1709324;83;21037;-49
2021/09/07 00:40:09;;;;;;;2.10;1.20;;;;;;;20.64;35.47;102805.30;1710623;83;21033;-49
2021/09/07 00:42:37;;;;;;;2.67;1.00;;;;;;;20.72;35.40;102806.80;1703244;83;21077;-46
2021/09/07 00:45:08;;;;;;;2.70;0.90;;;;;;;20.72;35.47;102799.30;1707785;83;21568;-46
2021/09/07 00:47:35;;;;;;;1.07;0.98;;;;;;;20.71;35.92;102803.72;1708861;83;21547;-47
2021/09/07 00:50:04;;;;;;;2.33;1.12;;;;;;;20.73;36.32;102805.86;1710344;83;21022;-50
2021/09/07 00:52:31;;;;;;;3.40;1.32;;;;;;;20.74;36.67;102806.29;1706104;83;21012;-47
2021/09/07 00:54:59;;;;;;;2.72;1.02;;;;;;;20.73;36.98;102805.86;1702938;83;21040;-49
2021/09/07 00:57:26;;;;;;;3.05;1.27;;;;;;;20.76;36.96;102807.11;1710042;83;21021;-46
2021/09/07 00:59:54;;;;;;;2.85;1.32;;;;;;;20.73;36.81;102805.86;1697287;83;21101;-50
2021/09/07 01:02:21;;;;;;;3.52;1.52;;;;;;;20.70;36.87;102807.30;1700225;83;21525;-46
2021/09/07 01:04:48;;;;;;;5.28;1.32;;;;;;;20.74;36.69;102804.97;1704124;83;21077;-50
2021/09/07 01:07:15;;;;;;;1.52;1.15;;;;;;;20.76;36.47;102805.78;1710081;83;21030;-46
2021/09/07 01:09:45;;;;;;;2.60;1.30;;;;;;;20.76;36.58;102803.14;1699982;83;21033;-50
2021/09/07 01:12:14;;;;;;;2.05;1.30;;;;;;;20.76;36.77;102808.43;1701093;83;21548;-46
2021/09/07 01:14:42;;;;;;;2.77;1.25;;;;;;;20.75;36.85;102801.39;1697945;83;21014;-47
2021/09/07 01:17:16;;;;;;;1.95;1.10;;;;;;;20.74;36.86;102808.94;1712225;83;21504;-50
2021/09/07 01:19:46;;;;;;;3.72;1.25;;;;;;;20.73;36.74;102803.70;1702605;83;21057;-50
2021/09/07 01:22:16;;;;;;;2.67;1.32;;;;;;;20.72;36.76;102807.24;1710886;83;21024;-49
2021/09/07 01:24:43;;;;;;;3.80;1.30;;;;;;;20.71;36.86;102805.05;1714151;83;20974;-49
2021/09/07 01:27:10;;;;;;;2.55;1.50;;;;;;;20.72;36.95;102801.50;1701609;83;21155;-49
2021/09/07 01:29:40;;;;;;;2.20;1.27;;;;;;;20.71;37.15;102807.69;1705897;83;21509;-50
2021/09/07 01:32:09;;;;;;;2.45;1.50;;;;;;;20.71;37.34;102797.59;1709405;83;21064;-49
2021/09/07 01:34:38;;;;;;;3.58;1.60;;;;;;;20.70;37.57;102805.98;1710550;83;21119;-46
2021/09/07 01:37:07;;;;;;;2.47;1.30;;;;;;;20.69;37.68;102798.94;1703052;83;21577;-50
2021/09/07 01:39:34;;;;;;;3.67;1.90;;;;;;;20.68;37.57;102795.03;1705765;83;21034;-50
2021/09/07 01:42:00;;;;;;;3.42;2.02;;;;;;;20.67;37.43;102797.28;1710694;83;21556;-49
2021/09/07 01:44:28;;;;;;;1.90;1.45;;;;;;;20.67;37.04;102802.57;1711528;83;21533;-50
2021/09/07 01:46:56;;;;;;;2.80;1.65;;;;;;;20.67;37.08;102796.80;1682923;83;21588;-49
2021/09/07 01:49:24;;;;;;;3.02;1.72;;;;;;;20.67;37.07;102787.55;1702314;83;21568;-47
2021/09/07 01:51:51;;;;;;;6.72;1.80;;;;;;;20.65;37.00;102792.02;1705490;83;21493;-49
2021/09/07 01:54:21;;;;;;;3.27;1.70;;;;;;;20.63;37.04;102791.68;1702840;83;21060;-51
2021/09/07 01:56:47;;;;;;;3.45;1.80;;;;;;;20.67;37.08;102784.89;1705579;83;21029;-52
2021/09/07 01:59:17;;;;;;;6.08;1.70;;;;;;;20.65;37.17;102789.37;1707495;83;21033;-46
2021/09/07 02:01:44;;;;;;;3.75;1.72;;;;;;;20.62;37.13;102797.42;1702739;83;20986;-49
2021/09/07 02:04:12;;;;;;;2.62;1.32;;;;;;;20.63;37.08;102793.84;1707252;83;21516;-49
2021/09/07 02:06:39;;;;;;;3.65;1.70;;;;;;;20.63;36.22;102793.84;1704175;83;21018;-48
2021/09/07 02:09:07;;;;;;;3.65;1.62;;;;;;;20.64;36.20;102789.42;1707880;83;21563;-51
2021/09/07 02:11:36;;;;;;;5.80;1.67;;;;;;;20.64;36.28;102792.95;1703663;83;21014;-50
2021/09/07 02:14:03;;;;;;;2.22;1.40;;;;;;;20.62;36.43;102786.84;1703525;83;21112;-49
2021/09/07 02:16:31;;;;;;;1.80;1.50;;;;;;;20.63;36.50;102797.81;1708392;83;21037;-47
2021/09/07 02:19:01;;;;;;;2.47;1.50;;;;;;;20.62;36.64;102796.55;1712565;83;21577;-52
2021/09/07 02:21:29;;;;;;;2.30;1.55;;;;;;;20.61;36.60;102790.38;1702739;83;21730;-52
2021/09/07 02:23:58;;;;;;;3.47;1.60;;;;;;;20.58;36.51;102794.91;1705085;83;21517;-50
2021/09/07 02:26:24;;;;;;;4.00;2.12;;;;;;;20.56;36.35;102800.26;1712008;83;21021;-46
2021/09/07 02:28:53;;;;;;;4.62;1.90;;;;;;;20.56;36.38;102793.64;1706352;83;21030;-49
2021/09/07 02:31:21;;;;;;;4.20;1.62;;;;;;;20.53;36.37;102797.69;1704740;83;21073;-50
2021/09/07 02:33:50;;;;;;;4.47;1.80;;;;;;;20.53;36.35;102796.81;1705284;83;20990;-50
2021/09/07 02:36:21;;;;;;;3.45;1.92;;;;;;;20.53;36.42;102802.11;1704869;83;21011;-50
2021/09/07 02:38:48;;;;;;;3.77;1.92;;;;;;;20.51;36.47;102802.16;1701379;83;21073;-49
2021/09/07 02:41:16;;;;;;;4.72;2.02;;;;;;;20.51;37.42;102798.64;1708184;83;21474;-46
2021/09/07 02:43:44;;;;;;;4.08;2.00;;;;;;;20.50;38.39;102803.09;1702868;83;21473;-49
2021/09/07 02:46:13;;;;;;;5.00;2.70;;;;;;;20.48;39.65;102804.05;1704991;83;21070;-49
2021/09/07 02:48:41;;;;;;;6.25;2.27;;;;;;;20.45;40.09;102805.45;1690469;83;21048;-49
2021/09/07 02:51:09;;;;;;;5.85;2.35;;;;;;;20.41;40.24;102804.68;1701767;83;21521;-50
2021/09/07 02:53:37;;;;;;;3.80;1.70;;;;;;;20.40;40.27;102814.87;1706363;83;21037;-46
2021/09/07 02:56:05;;;;;;;3.67;2.08;;;;;;;20.37;40.77;102816.27;1701712;83;21553;-50
2021/09/07 02:58:32;;;;;;;6.72;2.02;;;;;;;20.34;41.22;102815.02;1703482;83;21026;-49
2021/09/07 03:00:59;;;;;;;3.83;2.02;;;;;;;20.32;41.85;102827.42;1706442;83;21053;-49
2021/09/07 03:03:27;;;;;;;4.47;2.25;;;;;;;20.30;42.34;102820.47;1708827;83;21556;-48
2021/09/07 03:05:58;;;;;;;4.42;2.22;;;;;;;20.26;42.92;102821.86;1676177;85;21046;-46
2021/09/07 03:08:26;;;;;;;4.05;2.20;;;;;;;20.25;43.26;102824.56;1668246;85;21039;-47
2021/09/07 03:10:53;;;;;;;5.08;2.80;;;;;;;20.21;43.67;102822.92;1668821;84;21006;-50
2021/09/07 03:13:22;;;;;;;3.77;1.87;;;;;;;20.19;43.94;102828.67;1663626;85;21070;-48
2021/09/07 03:15:51;;;;;;;3.20;2.20;;;;;;;20.16;43.90;102827.42;1672882;84;21522;-50
2021/09/07 03:18:18;;;;;;;5.12;2.37;;;;;;;20.14;44.17;102828.80;1668143;85;21106;-50
2021/09/07 03:20:46;;;;;;;3.35;2.42;;;;;;;20.11;44.28;102833.31;1692432;83;21009;-51
2021/09/07 03:23:15;;;;;;;9.50;3.00;;;;;;;20.08;44.21;102830.74;1713723;83;21068;-49
2021/09/07 03:25:42;;;;;;;4.67;2.58;;;;;;;20.07;44.52;102835.64;1709841;83;20998;-46
2021/09/07 03:28:11;;;;;;;5.33;3.15;;;;;;;20.05;44.75;102838.78;1692973;83;21061;-50
2021/09/07 03:30:39;;;;;;;7.03;2.47;;;;;;;20.03;45.19;102836.63;1705094;83;21049;-52
2021/09/07 03:33:07;;;;;;;8.10;3.10;;;;;;;20.03;45.45;102833.99;1702581;83;21084;-50
2021/09/07 03:35:35;;;;;;;4.72;2.75;;;;;;;20.04;45.59;102842.31;1701842;83;21105;-50
2021/09/07 03:38:02;;;;;;;5.42;2.87;;;;;;;20.02;45.80;102837.53;1706334;83;21053;-46
2021/09/07 03:40:29;;;;;;;5.25;2.65;;;;;;;20.04;45.85;102842.31;1710025;83;21495;-52
2021/09/07 03:42:58;;;;;;;8.20;2.55;;;;;;;20.05;45.78;102844.06;1705729;83;21054;-49
2021/09/07 03:45:26;;;;;;;6.17;2.02;;;;;;;20.07;45.58;102846.20;1705569;83;21112;-49
2021/09/07 03:47:54;;;;;;;5.75;2.50;;;;;;;20.08;45.52;102850.13;1705349;83;21552;-49
2021/09/07 03:50:21;;;;;;;4.47;2.65;;;;;;;20.09;45.08;102847.03;1705029;83;21508;-47
2021/09/07 03:52:51;;;;;;;6.53;2.17;;;;;;;20.10;44.86;102848.75;1699767;83;21037;-50
2021/09/07 03:55:19;;;;;;;7.12;2.40;;;;;;;20.10;44.57;102848.30;1701254;83;21064;-48
2021/09/07 03:57:45;;;;;;;5.33;2.40;;;;;;;20.09;44.36;102853.16;1708484;83;21018;-46
2021/09/07 04:00:16;;;;;;;4.58;2.72;;;;;;;20.09;44.27;102851.00;1708251;83;21049;-49
2021/09/07 04:02:44;;;;;;;3.05;2.20;;;;;;;20.09;44.20;102861.56;1699431;83;21044;-49
2021/09/07 04:05:11;;;;;;;3.80;2.22;;;;;;;20.07;44.08;102868.67;1702588;83;21002;-48
2021/09/07 04:07:38;;;;;;;4.95;2.33;;;;;;;20.05;43.96;102863.89;1705992;82;21061;-47
2021/09/07 04:10:07;;;;;;;6.37;2.22;;;;;;;20.04;43.85;102866.09;1705862;83;21057;-46
2021/09/07 04:12:35;;;;;;;5.30;2.65;;;;;;;20.02;43.82;102862.63;1703990;83;21021;-47
2021/09/07 04:15:06;;;;;;;5.53;2.33;;;;;;;20.02;43.89;102862.63;1701099;83;21049;-50
2021/09/07 04:17:32;;;;;;;4.97;3.00;;;;;;;20.01;43.91;102864.41;1708405;83;20997;-48
2021/09/07 04:20:00;;;;;;;6.22;2.50;;;;;;;20.01;43.97;102864.88;1708631;83;21024;-46
2021/09/07 04:22:28;;;;;;;6.53;2.65;;;;;;;20.01;43.31;102867.52;1704095;83;21095;-48
2021/09/07 04:24:54;;;;;;;8.38;2.90;;;;;;;20.01;43.51;102874.13;1709387;83;21047;-47
2021/09/07 04:27:23;;;;;;;6.78;2.90;;;;;;;20.02;43.58;102870.56;1708782;83;21041;-50
2021/09/07 04:29:49;;;;;;;6.90;2.80;;;;;;;20.04;43.62;102874.91;1706796;83;21006;-46
2021/09/07 04:32:16;;;;;;;3.42;2.02;;;;;;;20.05;43.34;102873.13;1702898;83;21038;-46
2021/09/07 04:34:43;;;;;;;2.77;1.80;;;;;;;20.06;42.54;102869.56;1700740;83;21506;-48
2021/09/07 04:37:11;;;;;;;2.80;1.75;;;;;;;20.07;41.73;102880.09;1705238;83;21022;-47
2021/09/07 04:39:38;;;;;;;4.60;2.27;;;;;;;20.10;41.32;102879.14;1705936;83;21118;-49
2021/09/07 04:42:04;;;;;;;3.72;1.60;;;;;;;20.12;40.92;102881.28;1703125;83;21020;-49
2021/09/07 04:44:32;;;;;;;4.58;2.05;;;;;;;20.15;40.55;102887.83;1702477;83;21560;-48
2021/09/07 04:47:00;;;;;;;5.12;1.90;;;;;;;20.18;40.66;102878.47;1699592;83;21529;-47
2021/09/07 04:49:28;;;;;;;7.12;1.82;;;;;;;20.20;40.22;102876.23;1702559;83;21057;-50
2021/09/07 04:51:56;;;;;;;4.05;2.37;;;;;;;20.24;39.99;102879.66;1702034;83;21014;-46
2021/09/07 04:54:22;;;;;;;11.15;2.50;;;;;;;20.28;40.27;102887.91;1704219;83;20946;-48
2021/09/07 04:56:51;;;;;;;4.75;2.37;;;;;;;20.33;40.86;102884.69;1709243;83;21022;-50
2021/09/07 04:59:18;;;;;;;3.12;1.85;;;;;;;20.36;41.33;102887.23;1705641;83;21076;-49
2021/09/07 05:01:44;;;;;;;2.33;1.92;;;;;;;20.40;40.87;102883.62;1702862;83;21013;-49
2021/09/07 05:04:10;;;;;;;7.70;2.50;;;;;;;20.43;40.57;102882.19;1709083;83;21474;-50
2021/09/07 05:06:39;;;;;;;4.67;2.25;;;;;;;20.48;40.44;102884.26;1706537;83;21013;-50
2021/09/07 05:09:05;;;;;;;5.17;2.40;;;;;;;20.52;40.68;102895.61;1710580;83;21054;-49
2021/09/07 05:11:32;;;;;;;4.83;2.25;;;;;;;20.56;40.83;102903.41;1711307;83;21575;-50
2021/09/07 05:14:00;;;;;;;4.60;2.20;;;;;;;20.61;40.84;102902.80;1708295;83;21069;-46
2021/09/07 05:16:27;;;;;;;10.18;3.20;;;;;;;20.63;40.71;102902.30;1700481;83;21042;-47
2021/09/07 05:18:55;;;;;;;5.45;1.90;;;;;;;20.66;40.00;102902.22;1698230;83;21049;-49
2021/09/07 05:21:23;;;;;;;25.20;3.50;;;;;;;20.70;39.68;102905.64;1703629;83;20959;-49
2021/09/07 05:23:52;;;;;;;7.00;2.08;;;;;;;20.75;39.11;102910.34;1708469;83;21017;-50
2021/09/07 05:26:18;;;;;;;5.00;2.20;;;;;;;20.78;38.81;102911.56;1703015;83;21033;-48
2021/09/07 05:28:46;;;;;;;2.08;1.60;;;;;;;20.81;38.59;102912.33;1706926;83;21093;-52
2021/09/07 05:31:12;;;;;;;7.45;1.90;;;;;;;20.86;38.38;102918.81;1699697;83;21018;-50
2021/09/07 05:33:39;;;;;;;6.10;2.15;;;;;;;20.89;38.25;102916.96;1709275;83;21029;-46
2021/09/07 05:36:07;;;;;;;5.22;2.45;;;;;;;20.92;38.69;102916.85;1701640;83;21092;-46
2021/09/07 05:38:34;;;;;;;6.33;2.70;;;;;;;20.97;39.64;102920.23;1712111;83;21576;-48
2021/09/07 05:41:01;;;;;;;4.55;2.42;;;;;;;21.01;40.06;102914.37;1715850;83;21002;-50
2021/09/07 05:43:27;;;;;;;5.22;2.30;;;;;;;21.04;39.99;102919.15;1708146;83;21005;-48
2021/09/07 05:45:54;;;;;;;6.20;2.55;;;;;;;21.10;40.11;102914.14;1709365;83;21001;-48
2021/09/07 05:48:20;;;;;;;2.65;2.05;;;;;;;21.15;39.96;102916.62;1707920;83;21537;-50
2021/09/07 05:50:49;;;;;;;7.03;2.10;;;;;;;21.20;39.87;102926.17;1704093;83;21037;-45
2021/09/07 05:53:15;;;;;;;3.80;2.10;;;;;;;21.25;39.57;102928.65;1705855;83;21017;-49
2021/09/07 05:55:42;;;;;;;5.37;2.20;;;;;;;21.32;39.43;102924.91;1700871;83;21078;-48
2021/09/07 05:58:09;;;;;;;8.20;2.15;;;;;;;21.42;39.37;102928.98;1712581;83;21033;-46
2021/09/07 06:00:36;;;;;;;3.25;1.85;;;;;;;21.62;39.06;102931.83;1698628;83;20975;-45
2021/09/07 06:03:08;;;;;;;7.03;1.80;;;;;;;21.88;38.82;102937.17;1697631;83;21065;-48
2021/09/07 06:05:33;;;;;;;2.10;1.77;;;;;;;22.19;37.85;102935.19;1692619;83;21117;-47
2021/09/07 06:07:59;;;;;;;3.83;2.17;;;;;;;22.49;37.37;102934.06;1706418;83;21040;-46
2021/09/07 06:10:26;;;;;;;3.27;2.08;;;;;;;22.76;37.23;102936.62;1711929;83;22726;-49
2021/09/07 06:12:53;;;;;;;3.33;1.90;;;;;;;22.95;36.93;102933.68;1705954;83;21096;-50
2021/09/07 06:15:21;;;;;;;4.75;2.00;;;;;;;23.08;36.22;102933.61;1700362;83;21076;-48
2021/09/07 06:17:49;;;;;;;4.15;1.90;;;;;;;23.13;36.07;102939.13;1711772;83;21010;-44
2021/09/07 06:20:16;;;;;;;2.95;2.15;;;;;;;23.14;35.66;102933.37;1711630;83;21029;-45
2021/09/07 06:22:43;;;;;;;2.83;2.15;;;;;;;23.15;35.57;102940.39;1704181;83;21537;-48
2021/09/07 06:25:10;;;;;;;5.70;3.90;;;;;;;23.18;35.66;102945.59;1704414;83;21104;-50
2021/09/07 06:27:37;;;;;;;4.55;2.75;;;;;;;23.25;35.46;102939.09;1708738;83;21089;-47
2021/09/07 06:30:05;;;;;;;7.58;3.37;;;;;;;23.38;35.40;102952.33;1684685;83;21132;-48
2021/09/07 06:32:33;;;;;;;63.28;6.37;;;;;;;23.49;35.28;102951.44;1702721;83;21041;-47
2021/09/07 06:34:59;;;;;;;6.83;2.72;;;;;;;23.55;34.86;102953.84;1698869;83;21029;-45
2021/09/07 06:37:27;;;;;;;6.33;2.00;;;;;;;23.56;34.44;102954.23;1706416;83;21064;-46
2021/09/07 06:39:53;;;;;;;3.83;1.82;;;;;;;23.56;34.06;102956.89;1710261;83;21018;-50
2021/09/07 06:42:20;;;;;;;5.15;2.30;;;;;;;23.55;33.81;102961.81;1704184;83;21029;-46
2021/09/07 06:44:47;;;;;;;3.83;1.77;;;;;;;23.53;33.58;102968.98;1707153;83;21485;-45
2021/09/07 06:47:14;;;;;;;7.65;2.20;;;;;;;23.51;33.63;102965.53;1706500;83;21017;-48
2021/09/07 06:49:41;;;;;;;5.35;1.60;;;;;;;23.49;33.33;102967.84;1713513;83;21596;-49
2021/09/07 06:52:07;;;;;;;5.35;1.90;;;;;;;23.45;33.30;102969.77;1696398;83;21005;-50
2021/09/07 06:54:34;;;;;;;3.67;1.60;;;;;;;23.40;32.99;102975.72;1704287;83;21120;-47
2021/09/07 06:57:01;;;;;;;4.83;1.85;;;;;;;23.36;32.90;102972.33;1706097;83;21073;-47
2021/09/07 06:59:29;;;;;;;3.37;1.72;;;;;;;23.32;33.02;102976.03;1666968;85;21083;-48
2021/09/07 07:01:56;;;;;;;4.55;1.92;;;;;;;23.29;33.18;102973.45;1709860;82;21034;-47
2021/09/07 07:04:23;;;;;;;4.87;2.12;;;;;;;23.28;33.15;102980.16;1702241;83;21007;-50
2021/09/07 07:06:49;;;;;;;4.92;1.80;;;;;;;23.29;33.02;102976.56;1692205;83;21045;-49
2021/09/07 07:09:16;;;;;;;1.47;1.32;;;;;;;23.32;33.13;102980.48;1704197;83;20983;-50
2021/09/07 07:11:43;;;;;;;2.92;1.62;;;;;;;23.34;33.26;102981.28;1715828;83;20997;-49
2021/09/07 07:14:09;;;;;;;4.17;1.52;;;;;;;23.36;33.61;102983.41;1705674;83;21553;-48
2021/09/07 07:16:36;;;;;;;2.20;1.50;;;;;;;23.39;33.72;102987.25;1661247;85;21128;-47
2021/09/07 07:19:04;;;;;;;2.08;1.67;;;;;;;23.43;33.50;102988.89;1704125;83;21561;-49
2021/09/07 07:21:33;;;;;;;2.90;1.55;;;;;;;23.46;33.44;102988.75;1698148;83;21021;-50
2021/09/07 07:24:00;;;;;;;3.52;1.40;;;;;;;23.50;33.22;102993.02;1699957;83;20950;-47
2021/09/07 07:26:27;;;;;;;10.72;2.50;;;;;;;23.59;33.17;102998.42;1693596;83;21497;-46
2021/09/07 07:28:55;;;;;;;5.45;1.60;;;;;;;23.69;33.34;103000.66;1705459;83;20998;-49
2021/09/07 07:31:22;;;;;;;2.75;1.67;;;;;;;23.79;33.30;102998.02;1705298;83;21034;-51
2021/09/07 07:33:48;;;;;;;2.47;1.40;;;;;;;23.86;33.02;102999.95;1709027;83;21052;-48
2021/09/07 07:36:16;;;;;;;4.00;1.27;;;;;;;23.88;32.48;103000.30;1707074;83;20970;-46
2021/09/07 07:38:43;;;;;;;3.55;1.32;;;;;;;23.88;31.94;102991.45;1702810;83;21542;-46
2021/09/07 07:41:10;;;;;;;1.92;1.35;;;;;;;23.90;31.90;102995.78;1707450;83;21005;-51
2021/09/07 07:43:44;;;;;;;1.82;1.47;;;;;;;23.89;32.16;103000.68;1707460;82;21089;-47
2021/09/07 07:46:05;;;;;;;1.85;1.37;;;;;;;23.86;32.17;103002.16;1710444;83;21058;-46
2021/09/07 07:48:32;;;;;;;1.40;1.12;;;;;;;23.84;31.80;102998.70;1704502;83;21387;-45
2021/09/07 07:51:00;;;;;;;3.12;1.25;;;;;;;23.82;32.02;103005.84;1714608;83;20986;-48
2021/09/07 07:53:27;;;;;;;3.05;1.75;;;;;;;23.78;31.58;103004.24;1691066;83;21471;-52
2021/09/07 07:55:53;;;;;;;2.58;1.77;;;;;;;23.77;31.62;103013.62;1710477;83;21084;-49
2021/09/07 07:58:20;;;;;;;2.30;1.30;;;;;;;23.74;31.61;103010.61;1718243;83;21006;-49
2021/09/07 08:00:48;;;;;;;2.83;1.87;;;;;;;23.75;31.63;103006.17;1704038;83;21053;-46
2021/09/07 08:03:14;;;;;;;2.95;1.75;;;;;;;23.72;31.98;103004.98;1702264;83;21037;-48
2021/09/07 08:05:41;;;;;;;3.27;1.80;;;;;;;23.71;31.92;103004.11;1712232;83;21013;-46
2021/09/07 08:08:09;;;;;;;2.45;2.00;;;;;;;23.73;31.89;103008.91;1710394;83;20998;-49
2021/09/07 08:10:38;;;;;;;2.65;1.47;;;;;;;23.74;31.57;103007.11;1704172;82;21063;-46
2021/09/07 08:13:05;;;;;;;3.00;1.67;;;;;;;23.73;31.54;103010.69;1667872;85;21114;-49
2021/09/07 08:15:32;;;;;;;2.80;1.65;;;;;;;23.72;31.69;103012.47;1710504;83;21050;-47
2021/09/07 08:17:59;;;;;;;4.62;1.40;;;;;;;23.71;31.73;103005.44;1691337;83;20992;-47
2021/09/07 08:20:30;;;;;;;3.52;1.22;;;;;;;23.73;31.98;103008.91;1706008;83;20994;-47
2021/09/07 08:22:57;;;;;;;2.10;1.45;;;;;;;23.73;32.32;103011.56;1705833;83;20978;-48
2021/09/07 08:25:24;;;;;;;1.95;1.72;;;;;;;23.76;32.88;103011.41;1696813;83;20998;-48
2021/09/07 08:27:50;;;;;;;4.78;1.70;;;;;;;23.79;33.26;103016.63;1687909;83;21034;-52
2021/09/07 08:30:17;;;;;;;3.95;1.72;;;;;;;23.81;33.35;103013.44;1633262;86;21124;-47
2021/09/07 08:32:44;;;;;;;3.33;1.72;;;;;;;23.83;33.45;103008.05;1635438;86;21023;-48
2021/09/07 08:35:13;;;;;;;5.60;1.90;;;;;;;23.85;33.40;103008.39;1709140;83;21544;-47
2021/09/07 08:37:40;;;;;;;4.62;2.08;;;;;;;23.87;33.33;103009.19;1715098;83;21058;-46
2021/09/07 08:40:09;;;;;;;2.62;1.70;;;;;;;23.89;33.40;103012.64;1703242;83;21049;-47
2021/09/07 08:42:36;;;;;;;1.90;1.35;;;;;;;23.93;33.67;103018.69;1699154;83;21001;-47
2021/09/07 08:45:06;;;;;;;3.85;1.90;;;;;;;23.95;33.35;103015.05;1709233;83;21093;-49
2021/09/07 08:47:33;;;;;;;8.43;2.92;;;;;;;23.98;33.39;103012.27;1691731;83;21085;-49
2021/09/07 08:50:01;;;;;;;4.30;1.65;;;;;;;23.99;33.52;103011.33;1708103;83;21517;-45
2021/09/07 08:52:28;;;;;;;3.02;1.75;;;;;;;23.99;33.56;103008.67;1698578;83;21529;-48
2021/09/07 08:54:54;;;;;;;2.33;1.50;;;;;;;24.00;33.29;103010.42;1704074;83;20999;-49
2021/09/07 08:57:22;;;;;;;8.98;1.52;;;;;;;23.99;33.24;103019.30;1705038;83;20993;-49
2021/09/07 09:00:04;;;;;;;4.50;1.50;;;;;;;23.95;32.48;103007.53;1708650;83;21114;-45
2021/09/07 09:02:31;;;;;;;2.15;1.45;;;;;;;23.91;32.72;103006.80;1695979;83;21037;-46
2021/09/07 09:04:58;;;;;;;3.95;1.82;;;;;;;23.91;32.35;103009.92;1654454;83;21018;-49
2021/09/07 09:07:29;;;;;;;4.67;1.60;;;;;;;23.91;32.25;103001.48;1689289;83;21031;-51
2021/09/07 09:09:57;;;;;;;3.60;1.70;;;;;;;23.92;32.19;102999.23;1687021;83;21028;-47
2021/09/07 09:12:34;;;;;;;3.00;1.55;;;;;;;23.93;32.12;102995.63;1677212;83;21026;-48
2021/09/07 09:15:19;;;;;;;2.17;1.70;;;;;;;23.96;31.74;102999.51;1694176;83;21013;-49
2021/09/07 09:17:46;;;;;;;3.98;1.87;;;;;;;23.95;31.40;102997.77;1650159;85;21059;-50
2021/09/07 09:20:17;;;;;;;2.65;1.47;;;;;;;23.96;31.43;102995.52;1643866;86;21094;-47
2021/09/07 09:22:55;;;;;;;5.65;1.62;;;;;;;23.99;31.44;102996.70;1703529;83;21083;-48
2021/09/07 09:25:32;;;;;;;2.25;1.22;;;;;;;24.02;31.17;102997.91;1646725;85;21051;-48
2021/09/07 09:28:12;;;;;;;4.90;1.85;;;;;;;24.06;31.31;103001.33;1698664;83;21077;-46
2021/09/07 09:30:54;;;;;;;2.67;1.67;;;;;;;24.09;31.47;102996.73;1711905;83;20962;-45
2021/09/07 09:33:26;;;;;;;4.72;1.80;;;;;;;24.13;31.13;103002.33;1697202;83;21053;-50
2021/09/07 09:36:01;;;;;;;4.78;1.85;;;;;;;24.15;31.18;103007.11;1704591;83;21073;-50
2021/09/07 09:38:34;;;;;;;4.65;2.05;;;;;;;24.17;30.80;103009.24;1690917;83;21033;-48
2021/09/07 09:41:04;;;;;;;41.42;5.42;;;;;;;24.19;30.58;103001.22;1705014;83;21485;-51
2021/09/07 09:43:46;;;;;;;3.95;1.82;;;;;;;24.20;30.30;103003.80;1667272;84;21040;-56
2021/09/07 09:46:26;;;;;;;5.28;2.17;;;;;;;24.22;30.33;103002.40;1674213;84;21603;-48
2021/09/07 09:49:12;;;;;;;;;;;;;;;24.24;30.01;103001.41;1652933;85;21084;-49
2021/09/07 09:51:42;;;;;;;4.53;2.00;;;;;;;24.26;30.11;103000.00;1666496;84;20128;-49
2021/09/07 09:54:09;;;;;;;2.60;1.42;;;;;;;24.30;29.87;102999.42;1614212;87;21039;-48
2021/09/07 09:56:36;;;;;;;2.10;1.50;;;;;;;24.33;29.84;103001.94;1599782;87;21015;-50
2021/09/07 09:59:02;;;;;;;3.83;1.77;;;;;;;24.37;29.66;103003.53;1658789;85;21038;-50
2021/09/07 10:01:30;;;;;;;4.92;1.90;;;;;;;24.39;29.47;102996.34;1641699;85;21567;-46
2021/09/07 10:04:00;;;;;;;3.92;2.08;;;;;;;24.42;29.52;103004.20;1669364;84;21160;-46
2021/09/07 10:06:26;;;;;;;3.55;1.72;;;;;;;24.43;29.47;103000.59;1632549;86;21042;-50
2021/09/07 10:08:54;;;;;;;3.30;2.10;;;;;;;24.46;29.65;103003.14;1641770;87;21555;-47
2021/09/07 10:11:24;;;;;;;3.77;2.00;;;;;;;24.48;29.63;103004.81;1630027;86;21120;-50
2021/09/07 10:13:55;;;;;;;4.62;1.92;;;;;;;24.50;29.25;103004.73;1602570;87;21023;-47
2021/09/07 10:26:44;;;;;;;4.05;1.80;;;;;;;24.54;28.98;103007.66;1572029;89;21602;-49
2021/09/07 10:29:13;;;;;;;6.83;2.10;;;;;;;24.53;29.21;103006.78;1568543;90;21087;-47
2021/09/07 10:31:49;;;;;;;5.65;1.80;;;;;;;24.55;29.20;102997.39;1572348;89;21021;-45
2021/09/07 10:34:25;;;;;;;3.67;1.65;;;;;;;24.57;29.32;102992.86;1588248;88;21171;-50
2021/09/07 10:37:04;;;;;;;3.27;1.67;;;;;;;24.58;28.88;102994.14;1608664;87;21013;-47
2021/09/07 10:39:38;;;;;;;4.90;2.92;;;;;;;24.61;29.11;102994.45;1606876;87;21549;-45
2021/09/07 10:42:08;;;;;;;5.65;1.60;;;;;;;24.63;28.66;102994.78;1620555;87;21823;-49
2021/09/07 10:44:37;;;;;;;3.60;1.70;;;;;;;24.64;28.63;102994.33;1587593;88;21053;-47
2021/09/07 10:47:14;;;;;;;3.42;1.70;;;;;;;24.64;28.75;102989.00;1525595;91;21029;-48
2021/09/07 10:49:51;;;;;;;2.92;1.70;;;;;;;24.65;28.43;102990.25;1506841;94;21102;-45
2021/09/07 10:52:29;;;;;;;3.87;1.98;;;;;;;24.67;27.95;102988.84;1436870;99;21193;-48
2021/09/07 10:55:11;;;;;;;2.42;1.40;;;;;;;24.69;28.12;102987.01;1427834;98;21167;-45
2021/09/07 10:57:44;;;;;;;;;;;;;;;24.67;28.87;102986.18;1395421;101;21138;-48
2021/09/07 11:00:25;;;;;;;5.87;1.65;;;;;;;24.68;28.83;102987.92;1384395;102;20187;-45
2021/09/07 11:03:07;;;;;;;5.33;1.45;;;;;;;24.70;27.94;102988.72;1385329;101;21137;-47
2021/09/07 11:05:41;;;;;;;4.95;1.20;;;;;;;24.68;27.90;102990.59;1385308;101;21151;-48
2021/09/07 11:08:16;;;;;;;5.47;1.50;;;;;;;24.70;27.95;102990.05;1391952;101;21230;-47
2021/09/07 11:10:53;;;;;;;10.85;2.10;;;;;;;24.70;27.36;102994.05;1381530;102;21194;-45
2021/09/07 11:13:29;;;;;;;2.92;1.60;;;;;;;24.72;27.65;102992.17;1386251;102;21512;-45
2021/09/07 11:16:02;;;;;;;2.98;1.07;;;;;;;24.71;27.60;102979.81;1398053;100;21667;-48
2021/09/07 11:18:33;;;;;;;3.02;1.42;;;;;;;24.73;28.14;102980.61;1409935;96;21144;-45
2021/09/07 11:21:04;;;;;;;2.12;1.07;;;;;;;24.73;28.14;102980.61;1449694;97;21242;-51
2021/09/07 11:23:32;;;;;;;;;;;;;;;24.74;28.14;102986.34;1431477;99;21072;-46
2021/09/07 11:26:02;;;;;;;5.45;1.45;;;;;;;24.74;27.97;102982.35;1429745;99;20209;-49
2021/09/07 11:28:31;;;;;;;3.58;1.25;;;;;;;24.74;27.23;102981.02;1429913;99;21148;-49
2021/09/07 11:30:58;;;;;;;2.35;1.12;;;;;;;24.74;26.46;102973.91;1415581;99;21064;-48
2021/09/07 11:33:33;;;;;;;1.20;1.10;;;;;;;24.75;26.73;102977.44;1399960;101;21126;-49
2021/09/07 11:36:12;;;;;;;2.10;1.10;;;;;;;24.75;26.92;102970.78;1400714;100;21211;-50
2021/09/07 11:38:48;;;;;;;1.87;1.20;;;;;;;24.73;26.77;102975.28;1404357;100;21167;-48
2021/09/07 11:41:21;;;;;;;3.40;1.37;;;;;;;24.71;27.09;102971.83;1348458;104;21731;-50